TimePDT,TemperatureF,Dew PointF,Humidity,Sea Level PressureIn,VisibilityMPH,Wind Direction,Wind SpeedMPH,Gust SpeedMPH,PrecipitationIn,Events,Conditions,WindDirDegrees,DateUTC
12:15 AM,64.4,39.2,40,29.96,10.0,East,8.1,-,N/A,,Clear,90,2013-06-21 07:15:00
12:35 AM,62.6,39.2,42,29.96,10.0,East,5.8,-,N/A,,Clear,100,2013-06-21 07:35:00
12:55 AM,62.6,39.2,42,29.96,10.0,East,4.6,-,N/A,,Clear,90,2013-06-21 07:55:00
1:15 AM,60.8,39.2,45,29.96,10.0,East,4.6,-,N/A,,Clear,100,2013-06-21 08:15:00
1:35 AM,60.8,39.2,45,29.96,10.0,East,5.8,-,N/A,,Clear,90,2013-06-21 08:35:00
1:55 AM,62.6,39.2,42,29.96,10.0,East,5.8,-,N/A,,Clear,80,2013-06-21 08:55:00
2:15 AM,60.8,37.4,42,29.95,10.0,East,5.8,-,N/A,,Clear,90,2013-06-21 09:15:00
2:35 AM,60.8,37.4,42,29.95,10.0,East,4.6,-,N/A,,Clear,80,2013-06-21 09:35:00
2:55 AM,60.8,37.4,42,29.95,10.0,East,5.8,-,N/A,,Clear,80,2013-06-21 09:55:00
3:15 AM,60.8,37.4,42,29.95,10.0,East,4.6,-,N/A,,Clear,80,2013-06-21 10:15:00
3:35 AM,60.8,37.4,42,29.95,10.0,ENE,3.5,-,N/A,,Clear,60,2013-06-21 10:35:00
3:55 AM,60.8,37.4,42,29.94,10.0,East,3.5,-,N/A,,Clear,80,2013-06-21 10:55:00
4:15 AM,60.8,37.4,42,29.94,10.0,Calm,Calm,-,N/A,,Clear,0,2013-06-21 11:15:00
4:35 AM,60.8,37.4,42,29.94,10.0,Calm,Calm,-,N/A,,Clear,0,2013-06-21 11:35:00
4:55 AM,59.0,37.4,45,29.94,10.0,East,3.5,-,N/A,,Clear,80,2013-06-21 11:55:00
5:15 AM,57.2,37.4,48,29.94,10.0,Calm,Calm,-,N/A,,Clear,0,2013-06-21 12:15:00
5:35 AM,57.2,37.4,48,29.94,10.0,Calm,Calm,-,N/A,,Clear,0,2013-06-21 12:35:00
5:55 AM,55.4,39.2,54,29.95,10.0,Calm,Calm,-,N/A,,Clear,0,2013-06-21 12:55:00
6:15 AM,53.6,37.4,54,29.95,10.0,Calm,Calm,-,N/A,,Clear,0,2013-06-21 13:15:00
6:35 AM,55.4,39.2,54,29.95,10.0,Calm,Calm,-,N/A,,Clear,0,2013-06-21 13:35:00
6:55 AM,60.8,39.2,45,29.95,10.0,Calm,Calm,-,N/A,,Clear,0,2013-06-21 13:55:00
7:15 AM,62.6,39.2,42,29.95,10.0,East,3.5,-,N/A,,Clear,90,2013-06-21 14:15:00
7:35 AM,64.4,39.2,40,29.95,10.0,East,4.6,-,N/A,,Clear,100,2013-06-21 14:35:00
7:55 AM,66.2,39.2,37,29.95,10.0,Calm,Calm,-,N/A,,Clear,0,2013-06-21 14:55:00
8:15 AM,68.0,39.2,35,29.95,10.0,West,3.5,-,N/A,,Clear,260,2013-06-21 15:15:00
8:35 AM,69.8,42.8,38,29.96,10.0,West,4.6,-,N/A,,Clear,270,2013-06-21 15:35:00
8:55 AM,71.6,41.0,33,29.96,10.0,West,3.5,-,N/A,,Clear,280,2013-06-21 15:55:00
9:15 AM,71.6,42.8,35,29.96,10.0,West,4.6,-,N/A,,Clear,260,2013-06-21 16:15:00
9:35 AM,73.4,42.8,33,29.96,10.0,WNW,4.6,-,N/A,,Clear,290,2013-06-21 16:35:00
9:55 AM,73.4,44.6,36,29.96,10.0,WNW,5.8,-,N/A,,Clear,300,2013-06-21 16:55:00
10:15 AM,73.4,44.6,36,29.96,10.0,WSW,6.9,-,N/A,,Clear,250,2013-06-21 17:15:00
10:35 AM,75.2,44.6,34,29.96,10.0,NW,6.9,-,N/A,,Clear,310,2013-06-21 17:35:00
10:55 AM,75.2,44.6,34,29.97,10.0,West,8.1,-,N/A,,Clear,280,2013-06-21 17:55:00
11:15 AM,75.2,44.6,34,29.97,10.0,WSW,9.2,-,N/A,,Clear,250,2013-06-21 18:15:00
11:35 AM,78.8,46.4,32,29.97,10.0,West,8.1,-,N/A,,Clear,270,2013-06-21 18:35:00
11:55 AM,80.6,44.6,28,29.97,10.0,West,8.1,-,N/A,,Clear,260,2013-06-21 18:55:00
12:15 PM,80.6,42.8,26,29.97,10.0,NNW,4.6,-,N/A,,Clear,340,2013-06-21 19:15:00
12:35 PM,80.6,42.8,26,29.97,10.0,West,9.2,-,N/A,,Clear,270,2013-06-21 19:35:00
12:55 PM,80.6,42.8,26,29.97,10.0,NW,6.9,-,N/A,,Clear,320,2013-06-21 19:55:00
1:15 PM,82.4,42.8,25,29.97,10.0,WNW,5.8,16.1,N/A,,Clear,300,2013-06-21 20:15:00
1:35 PM,82.4,42.8,25,29.97,10.0,WNW,11.5,-,N/A,,Clear,290,2013-06-21 20:35:00
1:55 PM,82.4,42.8,25,29.97,10.0,WSW,5.8,-,N/A,,Clear,240,2013-06-21 20:55:00
2:15 PM,82.4,42.8,25,29.97,10.0,WNW,8.1,-,N/A,,Clear,300,2013-06-21 21:15:00
2:35 PM,82.4,41.0,23,29.96,10.0,West,10.4,-,N/A,,Clear,260,2013-06-21 21:35:00
2:55 PM,82.4,39.2,21,29.96,10.0,West,9.2,-,N/A,,Clear,280,2013-06-21 21:55:00
3:15 PM,82.4,41.0,23,29.96,10.0,South,4.6,-,N/A,,Clear,180,2013-06-21 22:15:00
3:35 PM,84.2,39.2,20,29.95,10.0,West,8.1,-,N/A,,Clear,280,2013-06-21 22:35:00
3:55 PM,82.4,39.2,21,29.95,10.0,WSW,6.9,-,N/A,,Clear,250,2013-06-21 22:55:00
4:15 PM,82.4,39.2,21,29.94,10.0,WSW,6.9,-,N/A,,Clear,240,2013-06-21 23:15:00
4:35 PM,82.4,39.2,21,29.94,10.0,West,4.6,-,N/A,,Clear,260,2013-06-21 23:35:00
4:55 PM,82.4,37.4,20,29.94,10.0,Calm,Calm,-,N/A,,Clear,0,2013-06-21 23:55:00
5:15 PM,84.2,42.8,23,29.93,10.0,WSW,8.1,-,N/A,,Clear,240,2013-06-22 00:15:00
5:35 PM,82.4,39.2,21,29.93,10.0,SW,8.1,-,N/A,,Clear,230,2013-06-22 00:35:00
5:55 PM,82.4,41.0,23,29.92,10.0,WNW,6.9,-,N/A,,Clear,300,2013-06-22 00:55:00
6:15 PM,82.4,39.2,21,29.92,10.0,West,8.1,-,N/A,,Clear,270,2013-06-22 01:15:00
6:35 PM,82.4,39.2,21,29.92,10.0,West,8.1,-,N/A,,Clear,280,2013-06-22 01:35:00
6:55 PM,82.4,39.2,21,29.92,10.0,West,5.8,-,N/A,,Clear,280,2013-06-22 01:55:00
7:15 PM,80.6,39.2,23,29.92,10.0,West,8.1,-,N/A,,Clear,270,2013-06-22 02:15:00
7:35 PM,80.6,39.2,23,29.92,10.0,West,4.6,-,N/A,,Clear,280,2013-06-22 02:35:00
7:55 PM,78.8,37.4,23,29.92,10.0,West,5.8,-,N/A,,Clear,280,2013-06-22 02:55:00
8:15 PM,77.0,37.4,24,29.93,10.0,Calm,Calm,-,N/A,,Clear,0,2013-06-22 03:15:00
8:35 PM,75.2,35.6,24,29.93,10.0,Calm,Calm,-,N/A,,Clear,0,2013-06-22 03:35:00
8:55 PM,68.0,35.6,30,29.93,10.0,Calm,Calm,-,N/A,,Clear,0,2013-06-22 03:55:00
9:15 PM,64.4,35.6,34,29.93,10.0,Calm,Calm,-,N/A,,Clear,0,2013-06-22 04:15:00
9:35 PM,62.6,35.6,37,29.93,10.0,Calm,Calm,-,N/A,,Clear,0,2013-06-22 04:35:00
9:55 PM,64.4,35.6,34,29.93,10.0,Calm,Calm,-,N/A,,Clear,0,2013-06-22 04:55:00
10:15 PM,64.4,35.6,34,29.94,10.0,Calm,Calm,-,N/A,,Clear,0,2013-06-22 05:15:00
10:35 PM,66.2,35.6,32,29.94,10.0,Calm,Calm,-,N/A,,Clear,0,2013-06-22 05:35:00
10:55 PM,66.2,35.6,32,29.94,10.0,Calm,Calm,-,N/A,,Clear,0,2013-06-22 05:55:00
11:15 PM,62.6,35.6,37,29.93,10.0,Calm,Calm,-,N/A,,Clear,0,2013-06-22 06:15:00
11:35 PM,66.2,35.6,32,29.93,10.0,Calm,Calm,-,N/A,,Clear,0,2013-06-22 06:35:00
11:55 PM,69.8,39.2,33,29.93,10.0,East,3.5,-,N/A,,Clear,80,2013-06-22 06:55:00